sensor_id;sensor_type;location;lat;lon;timestamp;pressure;altitude;pressure_sealevel;temperature;humidity
11912;BME280;6016;41.928;25.556;2023-02-13T00:01:51;100961.97;;;3.35;64.56
11912;BME280;6016;41.928;25.556;2023-02-13T00:04:18;101007.38;;;3.58;64.52
11912;BME280;6016;41.928;25.556;2023-02-13T00:06:45;101006.53;;;3.57;64.67
11912;BME280;6016;41.928;25.556;2023-02-13T00:09:13;100986.13;;;3.42;64.89
11912;BME280;6016;41.928;25.556;2023-02-13T00:11:41;101014.47;;;3.52;64.92
11912;BME280;6016;41.928;25.556;2023-02-13T00:14:08;100988.28;;;3.27;65.00
11912;BME280;6016;41.928;25.556;2023-02-13T00:16:35;101017.44;;;3.42;65.19
11912;BME280;6016;41.928;25.556;2023-02-13T00:19:02;101016.63;;;3.40;65.16
11912;BME280;6016;41.928;25.556;2023-02-13T00:21:29;101015.88;;;3.34;64.46
11912;BME280;6016;41.928;25.556;2023-02-13T00:23:56;101016.03;;;3.30;65.11
11912;BME280;6016;41.928;25.556;2023-02-13T00:26:23;101021.41;;;3.25;64.92
11912;BME280;6016;41.928;25.556;2023-02-13T00:28:51;101023.19;;;3.23;65.09
11912;BME280;6016;41.928;25.556;2023-02-13T00:31:19;101035.41;;;3.21;65.44
11912;BME280;6016;41.928;25.556;2023-02-13T00:33:46;101025.94;;;3.18;65.02
11912;BME280;6016;41.928;25.556;2023-02-13T00:36:17;101029.63;;;3.09;65.61
11912;BME280;6016;41.928;25.556;2023-02-13T00:38:44;101026.28;;;3.06;65.96
11912;BME280;6016;41.928;25.556;2023-02-13T00:41:12;101022.00;;;3.03;65.80
11912;BME280;6016;41.928;25.556;2023-02-13T00:43:39;101022.03;;;3.02;66.37
11912;BME280;6016;41.928;25.556;2023-02-13T00:46:07;101028.94;;;3.03;66.17
11912;BME280;6016;41.928;25.556;2023-02-13T00:48:35;101035.94;;;3.02;66.20
11912;BME280;6016;41.928;25.556;2023-02-13T00:51:02;100814.63;;;1.69;66.41
11912;BME280;6016;41.928;25.556;2023-02-13T00:53:30;101039.44;;;3.01;65.79
11912;BME280;6016;41.928;25.556;2023-02-13T00:55:57;101031.84;;;2.93;66.29
11912;BME280;6016;41.928;25.556;2023-02-13T00:58:24;101027.56;;;2.91;66.72
11912;BME280;6016;41.928;25.556;2023-02-13T01:00:51;101031.16;;;2.87;65.87
11912;BME280;6016;41.928;25.556;2023-02-13T01:03:20;101018.47;;;2.73;66.27
11912;BME280;6016;41.928;25.556;2023-02-13T01:05:48;101040.94;;;2.77;66.44
11912;BME280;6016;41.928;25.556;2023-02-13T01:08:18;101007.03;;;2.45;66.04
11912;BME280;6016;41.928;25.556;2023-02-13T01:10:46;100983.09;;;2.31;66.59
11912;BME280;6016;41.928;25.556;2023-02-13T01:13:15;101036.94;;;2.63;67.32
11912;BME280;6016;41.928;25.556;2023-02-13T01:15:43;100999.34;;;2.41;67.22
11912;BME280;6016;41.928;25.556;2023-02-13T01:18:11;100930.78;;;2.07;67.19
11912;BME280;6016;41.928;25.556;2023-02-13T01:20:39;101040.13;;;2.75;67.21
11912;BME280;6016;41.928;25.556;2023-02-13T01:23:06;101038.34;;;2.77;66.42
11912;BME280;6016;41.928;25.556;2023-02-13T01:25:33;100994.78;;;2.49;66.62
11912;BME280;6016;41.928;25.556;2023-02-13T01:28:00;101039.44;;;2.68;66.88
11912;BME280;6016;41.928;25.556;2023-02-13T01:30:27;101041.16;;;2.69;66.72
11912;BME280;6016;41.928;25.556;2023-02-13T01:32:54;101046.31;;;2.72;66.51
11912;BME280;6016;41.928;25.556;2023-02-13T01:35:20;101037.69;;;2.69;66.20
11912;BME280;6016;41.928;25.556;2023-02-13T01:37:49;101042.91;;;2.69;65.79
11912;BME280;6016;41.928;25.556;2023-02-13T01:40:16;101040.44;;;2.62;66.03
11912;BME280;6016;41.928;25.556;2023-02-13T01:42:43;101049.97;;;2.63;66.88
11912;BME280;6016;41.928;25.556;2023-02-13T01:45:22;101048.47;;;2.55;66.86
11912;BME280;6016;41.928;25.556;2023-02-13T01:47:52;100928.78;;;1.82;66.56
11912;BME280;6016;41.928;25.556;2023-02-13T01:50:24;101054.28;;;2.64;66.51
11912;BME280;6016;41.928;25.556;2023-02-13T01:52:56;100943.19;;;1.95;66.50
11912;BME280;6016;41.928;25.556;2023-02-13T01:55:26;101049.03;;;2.67;66.71
11912;BME280;6016;41.928;25.556;2023-02-13T01:57:57;101049.09;;;2.64;66.08
11912;BME280;6016;41.928;25.556;2023-02-13T02:00:26;101007.31;;;2.34;66.18
11912;BME280;6016;41.928;25.556;2023-02-13T02:03:01;101064.00;;;2.59;66.06
11912;BME280;6016;41.928;25.556;2023-02-13T02:05:30;101044.47;;;2.41;65.79
11912;BME280;6016;41.928;25.556;2023-02-13T02:08:03;100284.97;;;-2.28;65.41
11912;BME280;6016;41.928;25.556;2023-02-13T02:10:32;101048.97;;;2.34;66.59
11912;BME280;6016;41.928;25.556;2023-02-13T02:13:05;101069.69;;;2.41;66.58
11912;BME280;6016;41.928;25.556;2023-02-13T02:15:33;101026.13;;;2.11;66.36
11912;BME280;6016;41.928;25.556;2023-02-13T02:18:00;101069.81;;;2.34;66.30
11912;BME280;6016;41.928;25.556;2023-02-13T02:20:44;101015.19;;;1.96;66.96
11912;BME280;6016;41.928;25.556;2023-02-13T02:26:49;101073.50;;;2.25;66.97
11912;BME280;6016;41.928;25.556;2023-02-13T02:29:59;101087.59;;;2.17;66.18
11912;BME280;6016;41.928;25.556;2023-02-13T02:32:44;101086.03;;;2.08;66.32
11912;BME280;6016;41.928;25.556;2023-02-13T02:35:22;101041.72;;;1.73;66.84
11912;BME280;6016;41.928;25.556;2023-02-13T02:38:04;101098.41;;;1.98;67.10
11912;BME280;6016;41.928;25.556;2023-02-13T02:40:44;101102.81;;;1.94;67.33
11912;BME280;6016;41.928;25.556;2023-02-13T02:43:25;101093.34;;;1.92;66.60
11912;BME280;6016;41.928;25.556;2023-02-13T02:46:01;101089.97;;;1.88;67.22
11912;BME280;6016;41.928;25.556;2023-02-13T02:48:39;101046.56;;;1.49;67.16
11912;BME280;6016;41.928;25.556;2023-02-13T02:51:31;101100.63;;;1.76;67.78
11912;BME280;6016;41.928;25.556;2023-02-13T02:54:03;101042.31;;;1.45;67.53
11912;BME280;6016;41.928;25.556;2023-02-13T02:56:53;101078.31;;;1.65;67.93
11912;BME280;6016;41.928;25.556;2023-02-13T02:59:24;101095.34;;;1.80;67.77
11912;BME280;6016;41.928;25.556;2023-02-13T03:02:22;101101.63;;;1.70;67.44
11912;BME280;6016;41.928;25.556;2023-02-13T03:05:17;101092.94;;;1.69;67.78
11912;BME280;6016;41.928;25.556;2023-02-13T03:08:04;101105.84;;;1.76;68.04
11912;BME280;6016;41.928;25.556;2023-02-13T03:10:34;101104.94;;;1.77;68.59
11912;BME280;6016;41.928;25.556;2023-02-13T03:13:33;101086.84;;;1.71;67.55
11912;BME280;6016;41.928;25.556;2023-02-13T03:16:02;101097.16;;;1.77;66.85
11912;BME280;6016;41.928;25.556;2023-02-13T03:18:50;101051.19;;;1.36;67.38
11912;BME280;6016;41.928;25.556;2023-02-13T03:21:44;101104.56;;;1.54;68.04
11912;BME280;6016;41.928;25.556;2023-02-13T03:24:37;101096.94;;;1.45;67.94
11912;BME280;6016;41.928;25.556;2023-02-13T03:27:16;101104.72;;;1.47;67.76
11912;BME280;6016;41.928;25.556;2023-02-13T03:30:12;101102.13;;;1.45;67.28
11912;BME280;6016;41.928;25.556;2023-02-13T03:32:45;101075.47;;;1.35;67.85
11912;BME280;6016;41.928;25.556;2023-02-13T03:35:24;101099.47;;;1.48;67.25
11912;BME280;6016;41.928;25.556;2023-02-13T03:38:16;101115.03;;;1.50;67.28
11912;BME280;6016;41.928;25.556;2023-02-13T03:40:48;101115.75;;;1.58;67.53
11912;BME280;6016;41.928;25.556;2023-02-13T03:43:41;101106.19;;;1.59;66.94
11912;BME280;6016;41.928;25.556;2023-02-13T03:46:10;101113.09;;;1.60;66.41
11912;BME280;6016;41.928;25.556;2023-02-13T03:48:39;101113.19;;;1.57;66.63
11912;BME280;6016;41.928;25.556;2023-02-13T03:51:28;101112.44;;;1.50;66.61
11912;BME280;6016;41.928;25.556;2023-02-13T03:54:01;101115.94;;;1.47;67.05
11912;BME280;6016;41.928;25.556;2023-02-13T03:56:32;101116.03;;;1.43;67.18
11912;BME280;6016;41.928;25.556;2023-02-13T03:59:21;101114.25;;;1.45;67.79
11912;BME280;6016;41.928;25.556;2023-02-13T04:01:57;101122.78;;;1.53;66.57
11912;BME280;6016;41.928;25.556;2023-02-13T04:04:31;101045.53;;;1.16;66.08
11912;BME280;6016;41.928;25.556;2023-02-13T04:07:02;101123.41;;;1.66;65.79
11912;BME280;6016;41.928;25.556;2023-02-13T04:09:34;101122.41;;;1.72;65.40
11912;BME280;6016;41.928;25.556;2023-02-13T04:12:10;100914.31;;;0.52;65.34
11912;BME280;6016;41.928;25.556;2023-02-13T04:14:44;101106.81;;;1.72;65.00
11912;BME280;6016;41.928;25.556;2023-02-13T04:17:18;101080.28;;;1.54;64.76
11912;BME280;6016;41.928;25.556;2023-02-13T04:19:47;101122.09;;;1.86;64.05
11912;BME280;6016;41.928;25.556;2023-02-13T04:22:14;101066.84;;;1.33;64.54
11912;BME280;6016;41.928;25.556;2023-02-13T04:24:42;101122.69;;;1.58;64.78
11912;BME280;6016;41.928;25.556;2023-02-13T04:27:12;101065.34;;;1.21;65.41
11912;BME280;6016;41.928;25.556;2023-02-13T04:29:39;101115.69;;;1.61;65.61
11912;BME280;6016;41.928;25.556;2023-02-13T04:32:07;101078.31;;;1.23;64.29
11912;BME280;6016;41.928;25.556;2023-02-13T04:34:36;101120.97;;;1.57;64.42
11912;BME280;6016;41.928;25.556;2023-02-13T04:37:03;101119.28;;;1.54;65.19
11912;BME280;6016;41.928;25.556;2023-02-13T04:39:29;101112.31;;;1.56;65.59
11912;BME280;6016;41.928;25.556;2023-02-13T04:41:58;101097.03;;;1.40;64.91
11912;BME280;6016;41.928;25.556;2023-02-13T04:44:24;101106.53;;;1.42;64.76
11912;BME280;6016;41.928;25.556;2023-02-13T04:46:51;101128.75;;;1.58;65.55
11912;BME280;6016;41.928;25.556;2023-02-13T04:49:18;101133.84;;;1.63;64.79
11912;BME280;6016;41.928;25.556;2023-02-13T04:51:45;101137.22;;;1.68;64.81
11912;BME280;6016;41.928;25.556;2023-02-13T04:54:11;101139.75;;;1.71;64.55
11912;BME280;6016;41.928;25.556;2023-02-13T04:56:38;101149.16;;;1.78;65.27
11912;BME280;6016;41.928;25.556;2023-02-13T04:59:07;101147.28;;;1.85;64.66
11912;BME280;6016;41.928;25.556;2023-02-13T05:01:33;101145.59;;;1.81;65.42
11912;BME280;6016;41.928;25.556;2023-02-13T05:04:00;101056.63;;;1.24;63.90
11912;BME280;6016;41.928;25.556;2023-02-13T05:06:27;101145.78;;;1.73;63.72
11912;BME280;6016;41.928;25.556;2023-02-13T05:08:54;101153.50;;;1.76;63.18
11912;BME280;6016;41.928;25.556;2023-02-13T05:11:20;101149.16;;;1.78;63.50
11912;BME280;6016;41.928;25.556;2023-02-13T05:13:47;101152.50;;;1.83;63.86
11912;BME280;6016;41.928;25.556;2023-02-13T05:16:15;101121.88;;;1.56;63.21
11912;BME280;6016;41.928;25.556;2023-02-13T05:18:42;101163.97;;;1.73;63.55
11912;BME280;6016;41.928;25.556;2023-02-13T05:21:09;101162.34;;;1.69;63.27
11912;BME280;6016;41.928;25.556;2023-02-13T05:23:53;101160.13;;;1.49;64.24
11912;BME280;6016;41.928;25.556;2023-02-13T05:26:19;101165.75;;;1.27;64.70
11912;BME280;6016;41.928;25.556;2023-02-13T05:28:46;101168.47;;;1.21;65.20
11912;BME280;6016;41.928;25.556;2023-02-13T05:31:32;101107.72;;;0.78;65.79
11912;BME280;6016;41.928;25.556;2023-02-13T05:33:58;101087.84;;;0.75;66.09
11912;BME280;6016;41.928;25.556;2023-02-13T05:36:26;101181.25;;;1.32;65.78
11912;BME280;6016;41.928;25.556;2023-02-13T05:38:52;101082.53;;;0.30;65.56
11912;BME280;6016;41.928;25.556;2023-02-13T05:41:19;101129.78;;;1.02;65.28
11912;BME280;6016;41.928;25.556;2023-02-13T05:43:46;101186.22;;;1.44;65.84
11912;BME280;6016;41.928;25.556;2023-02-13T05:46:13;101185.34;;;1.45;64.71
11912;BME280;6016;41.928;25.556;2023-02-13T05:48:41;101186.97;;;1.51;64.78
11912;BME280;6016;41.928;25.556;2023-02-13T05:51:08;101074.72;;;0.83;64.44
11912;BME280;6016;41.928;25.556;2023-02-13T05:53:35;101131.19;;;1.20;64.87
11912;BME280;6016;41.928;25.556;2023-02-13T05:56:03;100992.50;;;0.35;64.53
11912;BME280;6016;41.928;25.556;2023-02-13T05:58:31;101072.03;;;0.89;64.41
11912;BME280;6016;41.928;25.556;2023-02-13T06:00:58;101116.44;;;1.22;63.90
11912;BME280;6016;41.928;25.556;2023-02-13T06:03:27;101174.44;;;1.72;64.89
11912;BME280;6016;41.928;25.556;2023-02-13T06:05:55;101175.72;;;1.93;65.29
11912;BME280;6016;41.928;25.556;2023-02-13T06:08:23;101198.19;;;1.97;63.18
11912;BME280;6016;41.928;25.556;2023-02-13T06:10:50;101178.72;;;2.15;63.57
11912;BME280;6016;41.928;25.556;2023-02-13T06:13:17;101178.59;;;2.21;63.02
11912;BME280;6016;41.928;25.556;2023-02-13T06:15:44;101185.63;;;2.18;63.54
11912;BME280;6016;41.928;25.556;2023-02-13T06:18:11;101170.81;;;2.20;62.72
11912;BME280;6016;41.928;25.556;2023-02-13T06:20:38;101188.34;;;2.51;62.45
11912;BME280;6016;41.928;25.556;2023-02-13T06:23:06;101170.81;;;2.58;62.39
11912;BME280;6016;41.928;25.556;2023-02-13T06:25:33;101167.09;;;2.68;61.70
11912;BME280;6016;41.928;25.556;2023-02-13T06:28:00;101130.84;;;2.59;60.73
11912;BME280;6016;41.928;25.556;2023-02-13T06:30:27;101187.78;;;3.11;60.59
11912;BME280;6016;41.928;25.556;2023-02-13T06:32:54;101116.50;;;2.77;59.90
11912;BME280;6016;41.928;25.556;2023-02-13T06:35:21;101190.72;;;3.31;59.59
11912;BME280;6016;41.928;25.556;2023-02-13T06:37:48;101131.56;;;3.00;60.81
11912;BME280;6016;41.928;25.556;2023-02-13T06:40:16;101187.88;;;3.41;61.36
11912;BME280;6016;41.928;25.556;2023-02-13T06:42:44;101102.25;;;2.90;60.80
11912;BME280;6016;41.928;25.556;2023-02-13T06:45:12;101118.66;;;2.95;59.74
11912;BME280;6016;41.928;25.556;2023-02-13T06:47:40;101096.03;;;2.63;60.09
11912;BME280;6016;41.928;25.556;2023-02-13T06:50:09;101185.59;;;3.28;60.85
11912;BME280;6016;41.928;25.556;2023-02-13T06:52:36;101189.16;;;3.57;60.95
11912;BME280;6016;41.928;25.556;2023-02-13T06:55:07;101150.41;;;3.75;60.27
11912;BME280;6016;41.928;25.556;2023-02-13T06:57:46;101175.34;;;4.98;58.31
11912;BME280;6016;41.928;25.556;2023-02-13T07:00:14;101031.59;;;6.33;53.13
11912;BME280;6016;41.928;25.556;2023-02-13T07:02:42;101173.78;;;8.78;49.04
11912;BME280;6016;41.928;25.556;2023-02-13T07:05:10;101129.03;;;9.96;45.71
11912;BME280;6016;41.928;25.556;2023-02-13T07:07:38;101151.44;;;12.15;40.37
11912;BME280;6016;41.928;25.556;2023-02-13T07:10:07;101156.19;;;14.07;36.47
11912;BME280;6016;41.928;25.556;2023-02-13T07:12:35;101161.47;;;15.27;34.06
11912;BME280;6016;41.928;25.556;2023-02-13T07:15:04;101162.56;;;15.47;33.43
11912;BME280;6016;41.928;25.556;2023-02-13T07:17:32;101147.72;;;15.45;33.33
11912;BME280;6016;41.928;25.556;2023-02-13T07:19:59;101147.59;;;14.28;34.92
11912;BME280;6016;41.928;25.556;2023-02-13T07:22:30;101125.53;;;12.47;37.16
11912;BME280;6016;41.928;25.556;2023-02-13T07:24:57;101072.03;;;11.02;38.82
11912;BME280;6016;41.928;25.556;2023-02-13T07:27:24;101172.00;;;10.93;40.83
11912;BME280;6016;41.928;25.556;2023-02-13T07:29:54;101103.69;;;10.10;41.24
11912;BME280;6016;41.928;25.556;2023-02-13T07:32:23;101159.72;;;10.92;41.06
11912;BME280;6016;41.928;25.556;2023-02-13T07:34:50;101170.94;;;12.94;38.00
11912;BME280;6016;41.928;25.556;2023-02-13T07:37:17;101123.44;;;14.19;35.11
11912;BME280;6016;41.928;25.556;2023-02-13T07:39:43;101171.28;;;14.80;33.94
11912;BME280;6016;41.928;25.556;2023-02-13T07:42:10;101136.09;;;15.23;33.84
11912;BME280;6016;41.928;25.556;2023-02-13T07:44:37;101004.47;;;15.84;32.27
11912;BME280;6016;41.928;25.556;2023-02-13T07:47:04;101165.19;;;17.76;30.10
11912;BME280;6016;41.928;25.556;2023-02-13T07:49:32;101135.53;;;18.50;29.32
11912;BME280;6016;41.928;25.556;2023-02-13T07:52:01;101160.59;;;19.36;28.03
11912;BME280;6016;41.928;25.556;2023-02-13T07:54:28;101105.72;;;19.22;27.59
11912;BME280;6016;41.928;25.556;2023-02-13T07:56:55;101153.81;;;19.42;27.22
11912;BME280;6016;41.928;25.556;2023-02-13T07:59:22;101137.66;;;19.33;27.49
11912;BME280;6016;41.928;25.556;2023-02-13T08:01:48;101152.53;;;19.74;26.40
11912;BME280;6016;41.928;25.556;2023-02-13T08:04:16;101065.00;;;19.56;25.35
11912;BME280;6016;41.928;25.556;2023-02-13T08:06:44;101148.34;;;19.99;25.45
11912;BME280;6016;41.928;25.556;2023-02-13T08:09:17;101146.28;;;19.83;24.77
11912;BME280;6016;41.928;25.556;2023-02-13T08:12:03;101125.91;;;18.96;25.66
11912;BME280;6016;41.928;25.556;2023-02-13T08:14:30;101145.41;;;17.89;25.87
11912;BME280;6016;41.928;25.556;2023-02-13T08:16:57;101145.00;;;17.00;27.50
11912;BME280;6016;41.928;25.556;2023-02-13T08:19:25;101122.63;;;16.05;29.64
11912;BME280;6016;41.928;25.556;2023-02-13T08:21:53;101151.69;;;15.39;29.74
11912;BME280;6016;41.928;25.556;2023-02-13T08:24:20;101128.09;;;14.40;29.43
11912;BME280;6016;41.928;25.556;2023-02-13T08:26:47;101125.69;;;13.75;29.71
11912;BME280;6016;41.928;25.556;2023-02-13T08:29:14;101153.47;;;13.05;30.68
11912;BME280;6016;41.928;25.556;2023-02-13T08:31:40;101135.22;;;12.74;32.89
11912;BME280;6016;41.928;25.556;2023-02-13T08:34:08;101132.91;;;12.83;31.50
11912;BME280;6016;41.928;25.556;2023-02-13T08:36:35;101092.09;;;12.59;31.90
11912;BME280;6016;41.928;25.556;2023-02-13T08:39:03;101141.94;;;13.19;32.13
11912;BME280;6016;41.928;25.556;2023-02-13T08:41:30;101133.53;;;13.77;30.20
11912;BME280;6016;41.928;25.556;2023-02-13T08:43:57;101116.69;;;14.27;31.99
11912;BME280;6016;41.928;25.556;2023-02-13T08:46:24;101094.53;;;14.39;30.97
11912;BME280;6016;41.928;25.556;2023-02-13T08:48:50;101035.66;;;13.98;29.26
11912;BME280;6016;41.928;25.556;2023-02-13T08:51:17;101144.03;;;14.65;28.81
11912;BME280;6016;41.928;25.556;2023-02-13T08:53:44;101138.66;;;14.53;28.86
11912;BME280;6016;41.928;25.556;2023-02-13T08:56:12;101140.72;;;14.25;30.14
11912;BME280;6016;41.928;25.556;2023-02-13T08:58:39;101113.72;;;13.57;31.18
11912;BME280;6016;41.928;25.556;2023-02-13T09:01:06;101131.47;;;13.56;31.63
11912;BME280;6016;41.928;25.556;2023-02-13T09:03:34;101132.03;;;13.86;30.56
11912;BME280;6016;41.928;25.556;2023-02-13T09:06:01;101021.06;;;13.42;32.89
11912;BME280;6016;41.928;25.556;2023-02-13T09:08:29;101125.25;;;14.43;31.18
11912;BME280;6016;41.928;25.556;2023-02-13T09:10:58;101134.66;;;14.72;29.89
11912;BME280;6016;41.928;25.556;2023-02-13T09:13:27;101132.50;;;14.77;30.89
11912;BME280;6016;41.928;25.556;2023-02-13T09:15:57;101101.59;;;14.52;28.67
11912;BME280;6016;41.928;25.556;2023-02-13T09:18:24;100802.22;;;12.78;30.70
11912;BME280;6016;41.928;25.556;2023-02-13T09:20:57;101117.13;;;14.45;30.25
11912;BME280;6016;41.928;25.556;2023-02-13T09:23:24;101119.00;;;14.31;30.66
11912;BME280;6016;41.928;25.556;2023-02-13T09:25:51;100759.38;;;11.96;30.14
11912;BME280;6016;41.928;25.556;2023-02-13T09:28:18;101120.66;;;14.21;30.43
11912;BME280;6016;41.928;25.556;2023-02-13T09:30:46;101109.69;;;13.64;30.90
11912;BME280;6016;41.928;25.556;2023-02-13T09:33:14;101094.34;;;12.91;32.96
11912;BME280;6016;41.928;25.556;2023-02-13T09:35:40;101025.56;;;12.64;32.23
11912;BME280;6016;41.928;25.556;2023-02-13T09:38:09;101098.28;;;13.25;32.85
11912;BME280;6016;41.928;25.556;2023-02-13T09:40:38;101024.63;;;13.04;32.10
11912;BME280;6016;41.928;25.556;2023-02-13T09:43:12;101095.50;;;13.89;32.58
11912;BME280;6016;41.928;25.556;2023-02-13T09:45:42;101081.00;;;14.06;32.15
11912;BME280;6016;41.928;25.556;2023-02-13T09:48:18;101088.25;;;13.67;30.65
11912;BME280;6016;41.928;25.556;2023-02-13T09:50:48;101081.66;;;13.22;32.13
11912;BME280;6016;41.928;25.556;2023-02-13T09:53:20;101078.88;;;12.98;31.73
11912;BME280;6016;41.928;25.556;2023-02-13T09:55:54;101081.09;;;12.65;32.98
11912;BME280;6016;41.928;25.556;2023-02-13T09:58:34;101055.09;;;12.32;32.88
11912;BME280;6016;41.928;25.556;2023-02-13T10:01:05;101073.78;;;12.01;33.83
11912;BME280;6016;41.928;25.556;2023-02-13T10:03:42;100790.09;;;10.36;35.70
11912;BME280;6016;41.928;25.556;2023-02-13T10:06:14;101016.28;;;12.05;34.10
11912;BME280;6016;41.928;25.556;2023-02-13T10:08:57;101061.69;;;12.52;33.27
11912;BME280;6016;41.928;25.556;2023-02-13T10:11:36;101051.75;;;12.69;34.03
11912;BME280;6016;41.928;25.556;2023-02-13T10:14:13;101043.81;;;12.69;34.09
11912;BME280;6016;41.928;25.556;2023-02-13T10:16:44;101010.00;;;12.46;35.78
11912;BME280;6016;41.928;25.556;2023-02-13T10:19:26;100873.38;;;11.66;34.83
11912;BME280;6016;41.928;25.556;2023-02-13T10:21:58;101038.84;;;12.90;34.33
11912;BME280;6016;41.928;25.556;2023-02-13T10:24:31;101029.72;;;12.81;34.19
11912;BME280;6016;41.928;25.556;2023-02-13T10:27:03;101019.78;;;12.98;34.34
11912;BME280;6016;41.928;25.556;2023-02-13T10:29:36;101014.22;;;13.27;33.43
11912;BME280;6016;41.928;25.556;2023-02-13T10:32:27;101026.00;;;13.09;34.65
11912;BME280;6016;41.928;25.556;2023-02-13T10:34:58;101002.69;;;13.02;33.99
11912;BME280;6016;41.928;25.556;2023-02-13T10:37:28;100919.03;;;12.73;34.38
11912;BME280;6016;41.928;25.556;2023-02-13T10:39:55;101010.41;;;13.68;33.53
11912;BME280;6016;41.928;25.556;2023-02-13T10:42:27;100936.19;;;12.80;33.78
11912;BME280;6016;41.928;25.556;2023-02-13T10:45:09;100997.50;;;13.00;33.79
11912;BME280;6016;41.928;25.556;2023-02-13T10:47:55;100960.47;;;13.25;36.56
11912;BME280;6016;41.928;25.556;2023-02-13T10:50:35;100976.44;;;13.73;36.00
11912;BME280;6016;41.928;25.556;2023-02-13T10:53:21;100994.34;;;13.45;33.56
11912;BME280;6016;41.928;25.556;2023-02-13T10:56:11;100975.59;;;12.85;34.90
11912;BME280;6016;41.928;25.556;2023-02-13T10:58:53;100984.06;;;11.98;35.43
11912;BME280;6016;41.928;25.556;2023-02-13T11:01:26;100925.84;;;11.72;36.02
11912;BME280;6016;41.928;25.556;2023-02-13T11:04:04;100961.81;;;12.28;35.06
11912;BME280;6016;41.928;25.556;2023-02-13T11:06:34;100949.47;;;12.29;34.77
11912;BME280;6016;41.928;25.556;2023-02-13T11:09:04;100942.59;;;12.39;37.14
11912;BME280;6016;41.928;25.556;2023-02-13T11:11:33;100884.25;;;12.15;36.95
11912;BME280;6016;41.928;25.556;2023-02-13T11:14:09;100926.91;;;12.49;39.05
11912;BME280;6016;41.928;25.556;2023-02-13T11:16:57;100910.72;;;12.54;38.46
11912;BME280;6016;41.928;25.556;2023-02-13T11:19:29;100876.44;;;12.39;37.24
11912;BME280;6016;41.928;25.556;2023-02-13T11:22:01;100921.19;;;12.55;38.51
11912;BME280;6016;41.928;25.556;2023-02-13T11:24:29;100837.81;;;12.10;37.70
11912;BME280;6016;41.928;25.556;2023-02-13T11:27:02;100905.84;;;12.60;36.70
11912;BME280;6016;41.928;25.556;2023-02-13T11:29:33;100903.16;;;12.73;36.81
11912;BME280;6016;41.928;25.556;2023-02-13T11:32:05;100869.06;;;12.69;35.41
11912;BME280;6016;41.928;25.556;2023-02-13T11:34:33;100876.44;;;12.76;35.34
11912;BME280;6016;41.928;25.556;2023-02-13T11:37:16;100893.03;;;13.04;36.19
11912;BME280;6016;41.928;25.556;2023-02-13T11:39:45;100890.66;;;13.13;36.53
11912;BME280;6016;41.928;25.556;2023-02-13T11:42:13;100825.06;;;12.55;34.62
11912;BME280;6016;41.928;25.556;2023-02-13T11:44:41;100888.88;;;12.63;34.75
11912;BME280;6016;41.928;25.556;2023-02-13T11:47:09;100886.16;;;12.51;35.59
11912;BME280;6016;41.928;25.556;2023-02-13T11:49:44;100877.13;;;12.54;34.54
11912;BME280;6016;41.928;25.556;2023-02-13T11:52:22;100803.94;;;12.16;35.65
11912;BME280;6016;41.928;25.556;2023-02-13T11:54:55;100871.59;;;12.70;36.66
11912;BME280;6016;41.928;25.556;2023-02-13T11:57:29;100874.56;;;12.65;38.34
11912;BME280;6016;41.928;25.556;2023-02-13T11:59:57;100851.44;;;12.43;37.41
11912;BME280;6016;41.928;25.556;2023-02-13T12:02:26;100811.53;;;11.94;38.25
11912;BME280;6016;41.928;25.556;2023-02-13T12:04:55;100858.22;;;12.21;39.55
11912;BME280;6016;41.928;25.556;2023-02-13T12:07:41;100859.25;;;12.45;38.69
11912;BME280;6016;41.928;25.556;2023-02-13T12:10:17;100820.19;;;12.48;38.88
11912;BME280;6016;41.928;25.556;2023-02-13T12:12:50;100852.28;;;12.81;37.42
11912;BME280;6016;41.928;25.556;2023-02-13T12:15:20;100848.66;;;12.95;37.49
11912;BME280;6016;41.928;25.556;2023-02-13T12:18:02;100859.56;;;13.03;37.24
11912;BME280;6016;41.928;25.556;2023-02-13T12:20:38;100760.41;;;12.33;38.20
11912;BME280;6016;41.928;25.556;2023-02-13T12:23:16;100828.03;;;12.50;40.27
11912;BME280;6016;41.928;25.556;2023-02-13T12:25:56;100811.03;;;12.02;39.99
11912;BME280;6016;41.928;25.556;2023-02-13T12:28:37;100847.72;;;12.46;40.19
11912;BME280;6016;41.928;25.556;2023-02-13T12:31:30;100789.44;;;12.21;37.95
11912;BME280;6016;41.928;25.556;2023-02-13T12:34:28;100810.00;;;12.55;37.59
11912;BME280;6016;41.928;25.556;2023-02-13T12:37:08;100836.00;;;12.74;38.30
11912;BME280;6016;41.928;25.556;2023-02-13T12:39:49;100834.94;;;13.01;38.73
11912;BME280;6016;41.928;25.556;2023-02-13T12:42:28;100609.03;;;11.79;36.22
11912;BME280;6016;41.928;25.556;2023-02-13T12:45:09;100824.47;;;13.00;36.74
11912;BME280;6016;41.928;25.556;2023-02-13T12:47:45;100637.63;;;12.11;35.42
11912;BME280;6016;41.928;25.556;2023-02-13T12:53:51;100750.47;;;12.36;36.05
11912;BME280;6016;41.928;25.556;2023-02-13T12:56:40;100493.16;;;10.59;37.05
11912;BME280;6016;41.928;25.556;2023-02-13T12:59:16;100814.41;;;12.68;36.66
11912;BME280;6016;41.928;25.556;2023-02-13T13:04:51;100802.88;;;12.69;35.83
11912;BME280;6016;41.928;25.556;2023-02-13T13:07:31;100804.94;;;12.76;36.89
11912;BME280;6016;41.928;25.556;2023-02-13T13:10:19;100797.31;;;12.85;35.08
11912;BME280;6016;41.928;25.556;2023-02-13T13:12:55;100796.97;;;12.89;36.41
11912;BME280;6016;41.928;25.556;2023-02-13T13:15:33;100771.78;;;12.59;34.98
11912;BME280;6016;41.928;25.556;2023-02-13T13:18:15;100777.34;;;12.68;35.28
11912;BME280;6016;41.928;25.556;2023-02-13T13:20:56;100711.31;;;12.29;35.88
11912;BME280;6016;41.928;25.556;2023-02-13T13:23:30;100791.72;;;12.76;36.45
11912;BME280;6016;41.928;25.556;2023-02-13T13:26:11;100773.91;;;12.54;35.79
11912;BME280;6016;41.928;25.556;2023-02-13T13:28:43;100732.28;;;12.19;35.29
11912;BME280;6016;41.928;25.556;2023-02-13T13:31:14;100739.69;;;12.01;36.31